WXM80 ListenWXM80 Stop

You find our weather info also at:

UK Metoffice

WeatherCloud

Weather Underground

Northeastern Weather Network

AWEKAS

Citizen Weather Observer Program (CWOP)

HAMweather, WeatherForYou, PWS Weather


Weather Underground History page Text

Daily Summary for December 19, 2016 Units:  English    Metric   Both
« Previous Day
Next Day »
Daily Weekly Monthly Yearly Custom
  High: Low: Average:
Temperature: 33.9 °F 24.4 °F 27.5 °F
Dew Point: 22.2 °F 6.9 °F 12.5 °F
Humidity: 67 % 37 % 54 %
Wind Speed: 12.6 mph 0.8 mph 6.1 mph
Wind Gust: 29.0 mph - -
Wind:- - ESE
Pressure: 30.72 in 30.42 in -
Precipitation: 0.00 in    
Historical Graphs
 
 
Tabular Data for December 19, 2016
Time Temperature Dew Point Pressure Wind Wind Speed Wind Gust Humidity Rainfall Rate (Hourly)
00:00 33.9 °F 20.7 °F 30.42 in NW 5.3 mph 29.0 mph 58 % 0.00 in
00:05 33.8 °F 20.6 °F 30.43 in NW 5.1 mph 29.0 mph 58 % 0.00 in
00:10 33.7 °F 20.5 °F 30.43 in NNW 5.2 mph 29.0 mph 58 % 0.00 in
00:15 33.6 °F 20.0 °F 30.44 in North 3.0 mph 29.0 mph 57 % 0.00 in
00:21 33.5 °F 20.3 °F 30.44 in NW 4.1 mph 29.0 mph 58 % 0.00 in
00:26 33.4 °F 20.2 °F 30.44 in North 4.2 mph 29.0 mph 58 % 0.00 in
00:31 33.4 °F 20.6 °F 30.44 in North 3.9 mph 29.0 mph 59 % 0.00 in
00:36 33.3 °F 20.9 °F 30.44 in North 5.7 mph 29.0 mph 60 % 0.00 in
00:41 33.3 °F 21.3 °F 30.44 in NNW 6.7 mph 29.0 mph 61 % 0.00 in
00:46 33.2 °F 21.2 °F 30.45 in NNE 5.5 mph 29.0 mph 61 % 0.00 in
00:51 33.1 °F 21.5 °F 30.45 in North 10.9 mph 29.0 mph 62 % 0.00 in
00:56 33.0 °F 21.4 °F 30.45 in North 6.1 mph 29.0 mph 62 % 0.00 in
01:01 32.9 °F 20.9 °F 30.46 in North 6.2 mph 29.0 mph 61 % 0.00 in
01:06 32.8 °F 20.4 °F 30.46 in North 8.7 mph 29.0 mph 60 % 0.00 in
01:11 32.7 °F 20.3 °F 30.46 in NE 8.0 mph 29.0 mph 60 % 0.00 in
01:16 32.6 °F 20.2 °F 30.46 in NNW 6.9 mph 29.0 mph 60 % 0.00 in
01:21 32.5 °F 19.7 °F 30.46 in NNE 8.8 mph 29.0 mph 59 % 0.00 in
01:26 32.4 °F 20.0 °F 30.47 in NNE 8.3 mph 29.0 mph 60 % 0.00 in
01:32 32.3 °F 21.1 °F 30.47 in NE 8.0 mph 29.0 mph 63 % 0.00 in
01:37 32.3 °F 22.2 °F 30.47 in NNE 7.9 mph 29.0 mph 66 % 0.00 in
01:42 32.1 °F 21.7 °F 30.48 in North 6.0 mph 29.0 mph 65 % 0.00 in
01:47 31.9 °F 21.5 °F 30.48 in NNE 6.4 mph 29.0 mph 65 % 0.00 in
01:52 31.7 °F 21.6 °F 30.49 in NNE 9.3 mph 29.0 mph 66 % 0.00 in
01:57 31.6 °F 21.2 °F 30.48 in NNE 7.2 mph 29.0 mph 65 % 0.00 in
02:02 31.4 °F 21.3 °F 30.49 in NE 7.2 mph 29.0 mph 66 % 0.00 in
02:07 31.3 °F 21.6 °F 30.49 in NE 7.1 mph 29.0 mph 67 % 0.00 in
02:12 31.2 °F 21.5 °F 30.49 in NNW 7.6 mph 29.0 mph 67 % 0.00 in
02:17 31.0 °F 21.0 °F 30.49 in NNE 4.8 mph 29.0 mph 66 % 0.00 in
02:22 30.9 °F 20.9 °F 30.50 in NE 5.6 mph 29.0 mph 66 % 0.00 in
02:27 30.7 °F 20.7 °F 30.50 in NNE 9.3 mph 29.0 mph 66 % 0.00 in
02:32 30.6 °F 20.6 °F 30.50 in NE 8.9 mph 29.0 mph 66 % 0.00 in
02:37 30.5 °F 20.5 °F 30.50 in NNE 9.1 mph 29.0 mph 66 % 0.00 in
02:42 30.3 °F 20.3 °F 30.51 in NNE 9.7 mph 29.0 mph 66 % 0.00 in
02:47 30.2 °F 19.8 °F 30.51 in North 9.3 mph 29.0 mph 65 % 0.00 in
02:52 30.1 °F 20.1 °F 30.51 in NNE 6.7 mph 29.0 mph 66 % 0.00 in
02:57 29.9 °F 19.9 °F 30.51 in NNE 7.6 mph 29.0 mph 66 % 0.00 in
03:03 29.9 °F 19.9 °F 30.51 in NNE 8.6 mph 29.0 mph 66 % 0.00 in
03:08 29.8 °F 19.8 °F 30.51 in North 7.3 mph 29.0 mph 66 % 0.00 in
03:13 29.6 °F 19.3 °F 30.52 in NNE 5.4 mph 29.0 mph 65 % 0.00 in
03:18 29.5 °F 19.2 °F 30.53 in NNE 6.0 mph 29.0 mph 65 % 0.00 in
03:23 29.3 °F 19.0 °F 30.53 in North 8.1 mph 29.0 mph 65 % 0.00 in
03:28 29.2 °F 18.9 °F 30.54 in NNE 9.0 mph 29.0 mph 65 % 0.00 in
03:33 28.9 °F 18.2 °F 30.55 in NNE 8.4 mph 29.0 mph 64 % 0.00 in
03:38 28.8 °F 18.1 °F 30.54 in NNE 6.8 mph 29.0 mph 64 % 0.00 in
03:43 28.8 °F 18.5 °F 30.55 in NE 6.9 mph 29.0 mph 65 % 0.00 in
03:48 28.7 °F 18.8 °F 30.54 in NE 11.5 mph 29.0 mph 66 % 0.00 in
03:53 28.6 °F 18.7 °F 30.55 in North 7.4 mph 29.0 mph 66 % 0.00 in
03:58 28.5 °F 18.2 °F 30.56 in NNE 7.2 mph 29.0 mph 65 % 0.00 in
04:03 28.3 °F 18.0 °F 30.56 in NNE 10.2 mph 29.0 mph 65 % 0.00 in
04:08 28.1 °F 17.1 °F 30.57 in NNE 7.5 mph 29.0 mph 63 % 0.00 in
04:13 27.8 °F 16.1 °F 30.58 in North 9.1 mph 29.0 mph 61 % 0.00 in
04:18 27.5 °F 15.4 °F 30.58 in NNE 7.9 mph 29.0 mph 60 % 0.00 in
04:23 27.3 °F 15.6 °F 30.59 in NNE 7.8 mph 29.0 mph 61 % 0.00 in
04:29 27.1 °F 15.8 °F 30.59 in NE 7.0 mph 29.0 mph 62 % 0.00 in
04:34 27.0 °F 15.7 °F 30.59 in NNE 6.9 mph 29.0 mph 62 % 0.00 in
04:39 26.9 °F 16.0 °F 30.59 in North 6.2 mph 29.0 mph 63 % 0.00 in
04:44 26.8 °F 15.5 °F 30.60 in NNW 11.2 mph 29.0 mph 62 % 0.00 in
04:49 26.6 °F 14.6 °F 30.60 in NNE 8.3 mph 29.0 mph 60 % 0.00 in
04:54 26.4 °F 14.4 °F 30.60 in NE 9.1 mph 29.0 mph 60 % 0.00 in
04:59 26.2 °F 14.6 °F 30.60 in NNE 8.2 mph 29.0 mph 61 % 0.00 in
05:04 26.1 °F 14.5 °F 30.60 in NNE 8.8 mph 29.0 mph 61 % 0.00 in
05:09 26.0 °F 14.4 °F 30.60 in NE 8.6 mph 29.0 mph 61 % 0.00 in
05:14 26.0 °F 14.8 °F 30.60 in NNE 8.2 mph 29.0 mph 62 % 0.00 in
05:19 25.9 °F 14.7 °F 30.60 in NNE 7.7 mph 29.0 mph 62 % 0.00 in
05:24 25.8 °F 15.3 °F 30.60 in NNE 6.0 mph 29.0 mph 64 % 0.00 in
05:29 25.8 °F 15.3 °F 30.60 in NNE 6.0 mph 12.0 mph 64 % 0.00 in
05:34 25.7 °F 15.2 °F 30.60 in NNE 10.0 mph 18.0 mph 64 % 0.00 in
05:39 25.6 °F 14.7 °F 30.60 in NNE 8.0 mph 18.0 mph 63 % 0.00 in
05:44 25.5 °F 14.3 °F 30.60 in NNE 8.0 mph 17.0 mph 62 % 0.00 in
05:49 25.3 °F 14.5 °F 30.61 in North 8.0 mph 15.0 mph 63 % 0.00 in
05:54 25.2 °F 13.6 °F 30.61 in NNE 10.0 mph 20.0 mph 61 % 0.00 in
05:59 25.1 °F 13.9 °F 30.62 in North 11.1 mph 29.0 mph 62 % 0.00 in
06:05 25.0 °F 13.8 °F 30.63 in NNE 9.7 mph 29.0 mph 62 % 0.00 in
06:10 24.9 °F 13.7 °F 30.63 in NNE 7.7 mph 29.0 mph 62 % 0.00 in
06:15 24.9 °F 14.1 °F 30.64 in NE 11.5 mph 29.0 mph 63 % 0.00 in
06:20 24.9 °F 13.7 °F 30.64 in North 10.9 mph 29.0 mph 62 % 0.00 in
06:25 24.8 °F 13.2 °F 30.64 in North 8.7 mph 29.0 mph 61 % 0.00 in
06:30 24.8 °F 13.2 °F 30.64 in NNE 9.9 mph 29.0 mph 61 % 0.00 in
06:35 24.8 °F 13.6 °F 30.64 in North 7.1 mph 29.0 mph 62 % 0.00 in
06:40 24.8 °F 13.2 °F 30.65 in North 7.5 mph 29.0 mph 61 % 0.00 in
06:45 24.8 °F 12.5 °F 30.65 in North 7.9 mph 29.0 mph 59 % 0.00 in
06:50 24.7 °F 11.6 °F 30.66 in NNE 7.6 mph 29.0 mph 57 % 0.00 in
06:55 24.6 °F 11.5 °F 30.66 in North 10.2 mph 29.0 mph 57 % 0.00 in
07:00 24.5 °F 11.4 °F 30.67 in NE 7.1 mph 29.0 mph 57 % 0.00 in
07:06 24.5 °F 11.4 °F 30.67 in North 10.1 mph 29.0 mph 57 % 0.00 in
07:11 24.4 °F 10.9 °F 30.66 in NNW 7.9 mph 29.0 mph 56 % 0.00 in
07:16 24.4 °F 10.5 °F 30.66 in NNW 6.2 mph 29.0 mph 55 % 0.00 in
07:21 24.4 °F 10.9 °F 30.66 in North 9.8 mph 29.0 mph 56 % 0.00 in
07:26 24.5 °F 10.6 °F 30.66 in North 7.1 mph 29.0 mph 55 % 0.00 in
07:31 24.5 °F 11.0 °F 30.66 in NNW 10.1 mph 29.0 mph 56 % 0.00 in
07:36 24.5 °F 10.2 °F 30.66 in North 7.9 mph 29.0 mph 54 % 0.00 in
07:41 24.5 °F 10.2 °F 30.66 in NE 8.8 mph 29.0 mph 54 % 0.00 in
07:46 24.5 °F 10.2 °F 30.67 in NNE 7.4 mph 29.0 mph 54 % 0.00 in
07:51 24.6 °F 9.5 °F 30.67 in NNW 8.8 mph 29.0 mph 52 % 0.00 in
07:56 24.6 °F 9.0 °F 30.67 in North 11.2 mph 29.0 mph 51 % 0.00 in
08:01 24.6 °F 9.0 °F 30.68 in North 8.1 mph 29.0 mph 51 % 0.00 in
08:06 24.6 °F 8.6 °F 30.67 in NNE 7.5 mph 29.0 mph 50 % 0.00 in
08:11 24.5 °F 8.9 °F 30.68 in North 8.4 mph 29.0 mph 51 % 0.00 in
08:17 24.5 °F 8.9 °F 30.68 in NNW 11.5 mph 29.0 mph 51 % 0.00 in
08:22 24.5 °F 8.9 °F 30.69 in North 5.1 mph 29.0 mph 51 % 0.00 in
08:27 24.6 °F 9.5 °F 30.69 in NNW 12.4 mph 29.0 mph 52 % 0.00 in
08:32 24.6 °F 8.6 °F 30.70 in North 7.7 mph 29.0 mph 50 % 0.00 in
08:37 24.7 °F 8.7 °F 30.69 in NNE 9.4 mph 29.0 mph 50 % 0.00 in
08:42 24.7 °F 8.7 °F 30.70 in NNW 7.6 mph 29.0 mph 50 % 0.00 in
08:47 24.8 °F 10.1 °F 30.70 in NE 7.4 mph 29.0 mph 53 % 0.00 in
08:52 24.8 °F 9.6 °F 30.71 in NNE 8.8 mph 29.0 mph 52 % 0.00 in
08:57 24.8 °F 8.8 °F 30.71 in NNW 5.5 mph 29.0 mph 50 % 0.00 in
09:02 24.8 °F 9.6 °F 30.71 in ENE 12.6 mph 29.0 mph 52 % 0.00 in
09:07 24.6 °F 8.6 °F 30.71 in NE 10.4 mph 29.0 mph 50 % 0.00 in
09:12 24.6 °F 8.6 °F 30.72 in North 6.7 mph 29.0 mph 50 % 0.00 in
09:17 24.5 °F 8.0 °F 30.72 in NNE 7.9 mph 29.0 mph 49 % 0.00 in
09:23 24.5 °F 8.5 °F 30.72 in NNE 9.8 mph 29.0 mph 50 % 0.00 in
09:28 24.4 °F 8.4 °F 30.72 in NNE 6.7 mph 29.0 mph 50 % 0.00 in
09:33 24.5 °F 8.5 °F 30.72 in North 8.3 mph 29.0 mph 50 % 0.00 in
09:38 24.6 °F 8.6 °F 30.72 in NNE 4.6 mph 29.0 mph 50 % 0.00 in
09:43 24.8 °F 7.9 °F 30.72 in NNW 7.4 mph 29.0 mph 48 % 0.00 in
09:48 24.9 °F 8.0 °F 30.72 in NNW 10.0 mph 29.0 mph 48 % 0.00 in
09:53 25.0 °F 8.0 °F 30.72 in North 9.3 mph 29.0 mph 48 % 0.00 in
09:58 25.1 °F 7.7 °F 30.72 in NNE 9.2 mph 29.0 mph 47 % 0.00 in
10:03 25.3 °F 7.9 °F 30.72 in NNE 7.4 mph 29.0 mph 47 % 0.00 in
10:08 25.5 °F 8.0 °F 30.72 in North 7.3 mph 29.0 mph 47 % 0.00 in
10:13 25.7 °F 8.2 °F 30.71 in NNE 6.4 mph 29.0 mph 47 % 0.00 in
10:18 26.0 °F 8.0 °F 30.71 in NNW 4.3 mph 29.0 mph 46 % 0.00 in
10:23 26.2 °F 8.2 °F 30.71 in NNW 6.0 mph 29.0 mph 46 % 0.00 in
10:28 26.4 °F 8.4 °F 30.71 in North 7.0 mph 29.0 mph 46 % 0.00 in
10:33 26.5 °F 8.0 °F 30.70 in NNE 10.0 mph 29.0 mph 45 % 0.00 in
10:39 26.6 °F 8.1 °F 30.70 in North 6.5 mph 29.0 mph 45 % 0.00 in
10:44 26.7 °F 8.7 °F 30.70 in North 6.3 mph 29.0 mph 46 % 0.00 in
10:49 26.7 °F 8.2 °F 30.70 in NNE 6.5 mph 29.0 mph 45 % 0.00 in
10:54 26.8 °F 8.8 °F 30.69 in NNW 6.3 mph 29.0 mph 46 % 0.00 in
10:59 26.8 °F 8.3 °F 30.69 in NNE 6.5 mph 29.0 mph 45 % 0.00 in
11:04 26.8 °F 7.3 °F 30.69 in NNE 7.5 mph 29.0 mph 43 % 0.00 in
11:09 26.8 °F 7.8 °F 30.69 in NE 7.1 mph 29.0 mph 44 % 0.00 in
11:14 26.8 °F 8.3 °F 30.68 in ENE 6.8 mph 29.0 mph 45 % 0.00 in
11:19 26.8 °F 7.8 °F 30.68 in ENE 6.2 mph 29.0 mph 44 % 0.00 in
11:24 26.8 °F 7.8 °F 30.68 in North 5.5 mph 29.0 mph 44 % 0.00 in
11:29 26.9 °F 8.4 °F 30.68 in NW 4.7 mph 29.0 mph 45 % 0.00 in
11:34 27.0 °F 8.5 °F 30.68 in North 6.7 mph 29.0 mph 45 % 0.00 in
11:39 27.0 °F 8.0 °F 30.68 in North 5.0 mph 8.0 mph 44 % 0.00 in
11:44 27.1 °F 8.5 °F 30.67 in NNE 5.0 mph 7.0 mph 45 % 0.00 in
11:49 27.2 °F 8.6 °F 30.67 in NNE 6.0 mph 9.0 mph 45 % 0.00 in
11:54 27.3 °F 9.2 °F 30.67 in NNE 6.0 mph 8.0 mph 46 % 0.00 in
11:59 27.4 °F 8.3 °F 30.67 in NNW 4.0 mph 29.0 mph 44 % 0.00 in
12:04 27.5 °F 8.9 °F 30.66 in NNE 4.1 mph 29.0 mph 45 % 0.00 in
12:09 27.6 °F 9.0 °F 30.67 in North 3.0 mph 9.0 mph 45 % 0.00 in
12:14 27.8 °F 9.2 °F 30.67 in North 3.0 mph 12.0 mph 45 % 0.00 in
12:19 28.1 °F 8.4 °F 30.66 in North 5.0 mph 12.0 mph 43 % 0.00 in
12:24 28.4 °F 8.2 °F 30.66 in NNW 3.9 mph 29.0 mph 42 % 0.00 in
12:29 28.8 °F 9.6 °F 30.66 in North 5.0 mph 10.0 mph 44 % 0.00 in
12:34 29.0 °F 9.3 °F 30.66 in North 5.0 mph 12.0 mph 43 % 0.00 in
12:39 29.1 °F 7.7 °F 30.66 in North 6.0 mph 10.0 mph 40 % 0.00 in
12:44 29.3 °F 9.5 °F 30.66 in NNE 5.0 mph 10.0 mph 43 % 0.00 in
12:49 29.4 °F 8.0 °F 30.66 in NNE 5.0 mph 8.0 mph 40 % 0.00 in
12:54 29.4 °F 8.0 °F 30.66 in North 6.0 mph 7.0 mph 40 % 0.00 in
12:59 29.4 °F 6.9 °F 30.66 in North 6.0 mph 29.0 mph 38 % 0.00 in
13:05 29.4 °F 8.0 °F 30.66 in NE 6.0 mph 29.0 mph 40 % 0.00 in
13:10 29.5 °F 8.7 °F 30.65 in NNE 3.3 mph 29.0 mph 41 % 0.00 in
13:15 29.6 °F 8.2 °F 30.66 in NE 5.3 mph 29.0 mph 40 % 0.00 in
13:20 29.7 °F 9.4 °F 30.65 in NNE 2.9 mph 29.0 mph 42 % 0.00 in
13:25 29.9 °F 9.0 °F 30.65 in NNE 2.9 mph 29.0 mph 41 % 0.00 in
13:30 30.0 °F 8.0 °F 30.65 in NNE 5.4 mph 29.0 mph 39 % 0.00 in
13:35 30.0 °F 8.0 °F 30.66 in NNE 5.0 mph 29.0 mph 39 % 0.00 in
13:40 30.2 °F 7.6 °F 30.66 in NE 7.2 mph 29.0 mph 38 % 0.00 in
13:45 30.2 °F 7.6 °F 30.65 in NNW 4.2 mph 29.0 mph 38 % 0.00 in
13:50 30.3 °F 7.1 °F 30.65 in NNE 7.7 mph 29.0 mph 37 % 0.00 in
13:55 30.3 °F 7.1 °F 30.65 in NE 6.5 mph 29.0 mph 37 % 0.00 in
14:00 30.3 °F 8.3 °F 30.65 in NE 3.2 mph 29.0 mph 39 % 0.00 in
14:05 30.3 °F 7.1 °F 30.65 in North 5.1 mph 29.0 mph 37 % 0.00 in
14:10 30.2 °F 7.6 °F 30.65 in NNE 3.9 mph 29.0 mph 38 % 0.00 in
14:15 30.2 °F 8.2 °F 30.66 in NNE 7.0 mph 29.0 mph 39 % 0.00 in
14:20 30.1 °F 8.7 °F 30.66 in North 5.1 mph 29.0 mph 40 % 0.00 in
14:25 30.0 °F 7.4 °F 30.66 in ENE 3.5 mph 29.0 mph 38 % 0.00 in
14:30 29.9 °F 7.9 °F 30.66 in NNE 3.3 mph 29.0 mph 39 % 0.00 in
14:35 29.9 °F 7.9 °F 30.65 in NNW 6.9 mph 29.0 mph 39 % 0.00 in
14:40 29.8 °F 7.2 °F 30.65 in NNE 7.5 mph 29.0 mph 38 % 0.00 in
14:45 29.7 °F 7.7 °F 30.66 in WNW 4.3 mph 29.0 mph 39 % 0.00 in
14:50 29.6 °F 7.1 °F 30.66 in NNE 5.3 mph 29.0 mph 38 % 0.00 in
14:55 29.6 °F 7.6 °F 30.65 in NNE 6.8 mph 29.0 mph 39 % 0.00 in
15:00 29.5 °F 7.0 °F 30.65 in NE 5.9 mph 29.0 mph 38 % 0.00 in
15:05 29.4 °F 6.9 °F 30.65 in NNE 4.9 mph 29.0 mph 38 % 0.00 in
15:10 29.3 °F 7.9 °F 30.65 in North 3.8 mph 29.0 mph 40 % 0.00 in
15:15 29.2 °F 8.4 °F 30.66 in NNE 6.7 mph 29.0 mph 41 % 0.00 in
15:21 29.1 °F 8.3 °F 30.66 in North 7.0 mph 29.0 mph 41 % 0.00 in
15:26 29.0 °F 8.2 °F 30.66 in NNE 4.4 mph 29.0 mph 41 % 0.00 in
15:31 28.9 °F 8.6 °F 30.66 in NNE 3.3 mph 29.0 mph 42 % 0.00 in
15:36 28.8 °F 8.6 °F 30.66 in North 2.0 mph 29.0 mph 42 % 0.00 in
15:41 28.7 °F 9.0 °F 30.66 in NNE 0.8 mph 29.0 mph 43 % 0.00 in
15:46 28.7 °F 8.5 °F 30.66 in North 1.9 mph 29.0 mph 42 % 0.00 in
15:51 28.6 °F 9.4 °F 30.66 in North 4.7 mph 29.0 mph 44 % 0.00 in
15:56 28.5 °F 9.8 °F 30.66 in NNW 5.6 mph 29.0 mph 45 % 0.00 in
16:01 28.4 °F 9.2 °F 30.66 in NNW 4.3 mph 29.0 mph 44 % 0.00 in
16:06 28.3 °F 9.1 °F 30.66 in North 4.3 mph 29.0 mph 44 % 0.00 in
16:11 28.1 °F 9.5 °F 30.66 in NNE 3.9 mph 29.0 mph 45 % 0.00 in
16:16 28.0 °F 9.4 °F 30.66 in NE 4.7 mph 29.0 mph 45 % 0.00 in
16:21 27.9 °F 9.8 °F 30.66 in North 2.8 mph 29.0 mph 46 % 0.00 in
16:26 27.8 °F 9.7 °F 30.66 in NNW 4.5 mph 29.0 mph 46 % 0.00 in
16:32 27.7 °F 10.5 °F 30.67 in North 4.2 mph 29.0 mph 48 % 0.00 in
16:37 27.5 °F 10.8 °F 30.67 in NE 7.7 mph 29.0 mph 49 % 0.00 in
16:42 27.4 °F 11.2 °F 30.66 in NNW 5.5 mph 29.0 mph 50 % 0.00 in
16:47 27.3 °F 11.1 °F 30.66 in NNE 1.9 mph 29.0 mph 50 % 0.00 in
16:52 27.3 °F 11.1 °F 30.66 in NNE 2.7 mph 29.0 mph 50 % 0.00 in
16:57 27.2 °F 10.5 °F 30.66 in NNE 4.2 mph 29.0 mph 49 % 0.00 in
17:02 27.1 °F 10.4 °F 30.66 in NNE 5.7 mph 29.0 mph 49 % 0.00 in
17:07 27.1 °F 10.9 °F 30.66 in NNE 3.1 mph 29.0 mph 50 % 0.00 in
17:12 27.1 °F 10.9 °F 30.66 in North 5.4 mph 29.0 mph 50 % 0.00 in
17:17 27.0 °F 10.8 °F 30.66 in NE 6.0 mph 29.0 mph 50 % 0.00 in
17:22 27.0 °F 11.3 °F 30.67 in NNE 5.5 mph 29.0 mph 51 % 0.00 in
17:27 27.0 °F 11.3 °F 30.67 in North 6.1 mph 29.0 mph 51 % 0.00 in
17:32 27.0 °F 12.1 °F 30.66 in NE 4.4 mph 29.0 mph 53 % 0.00 in
17:37 26.9 °F 11.6 °F 30.66 in North 6.4 mph 29.0 mph 52 % 0.00 in
17:42 26.9 °F 11.6 °F 30.66 in NNE 4.2 mph 29.0 mph 52 % 0.00 in
17:47 26.9 °F 11.6 °F 30.66 in NNW 3.1 mph 29.0 mph 52 % 0.00 in
17:52 26.8 °F 11.5 °F 30.66 in North 5.0 mph 29.0 mph 52 % 0.00 in
17:57 26.8 °F 11.9 °F 30.66 in NNE 4.9 mph 29.0 mph 53 % 0.00 in
18:02 26.8 °F 12.4 °F 30.66 in NNE 4.7 mph 29.0 mph 54 % 0.00 in
18:08 26.8 °F 11.9 °F 30.67 in North 4.3 mph 29.0 mph 53 % 0.00 in
18:13 26.8 °F 11.9 °F 30.66 in NNE 3.3 mph 29.0 mph 53 % 0.00 in
18:18 26.8 °F 11.9 °F 30.67 in NNE 4.5 mph 29.0 mph 53 % 0.00 in
18:23 26.8 °F 11.9 °F 30.66 in North 4.4 mph 29.0 mph 53 % 0.00 in
18:28 26.8 °F 11.5 °F 30.67 in NNE 3.2 mph 29.0 mph 52 % 0.00 in
18:33 26.7 °F 11.8 °F 30.66 in NNE 8.0 mph 29.0 mph 53 % 0.00 in
18:38 26.7 °F 11.8 °F 30.66 in North 4.4 mph 29.0 mph 53 % 0.00 in
18:43 26.7 °F 11.8 °F 30.67 in NE 5.7 mph 29.0 mph 53 % 0.00 in
18:48 26.6 °F 12.2 °F 30.67 in NNE 4.2 mph 29.0 mph 54 % 0.00 in
18:53 26.6 °F 12.2 °F 30.67 in NNE 2.7 mph 29.0 mph 54 % 0.00 in
18:58 26.6 °F 12.6 °F 30.67 in NNE 3.8 mph 29.0 mph 55 % 0.00 in
19:03 26.6 °F 13.0 °F 30.66 in North 4.2 mph 29.0 mph 56 % 0.00 in
19:08 26.6 °F 12.6 °F 30.67 in North 4.5 mph 29.0 mph 55 % 0.00 in
19:13 26.6 °F 12.6 °F 30.66 in NNE 4.7 mph 29.0 mph 55 % 0.00 in
19:18 26.6 °F 12.2 °F 30.66 in NNE 5.0 mph 29.0 mph 54 % 0.00 in
19:23 26.6 °F 12.6 °F 30.66 in NNE 6.4 mph 29.0 mph 55 % 0.00 in
19:28 26.6 °F 12.6 °F 30.66 in North 7.2 mph 29.0 mph 55 % 0.00 in
19:33 26.6 °F 12.6 °F 30.66 in NNE 3.2 mph 29.0 mph 55 % 0.00 in
19:38 26.6 °F 12.6 °F 30.66 in NNE 5.9 mph 29.0 mph 55 % 0.00 in
19:43 26.6 °F 13.0 °F 30.66 in North 5.5 mph 29.0 mph 56 % 0.00 in
19:49 26.6 °F 13.4 °F 30.66 in NNE 7.2 mph 29.0 mph 57 % 0.00 in
19:54 26.6 °F 13.4 °F 30.66 in NNE 3.4 mph 29.0 mph 57 % 0.00 in
19:59 26.6 °F 13.4 °F 30.66 in NNE 2.6 mph 29.0 mph 57 % 0.00 in
20:04 26.6 °F 13.0 °F 30.66 in NE 2.2 mph 29.0 mph 56 % 0.00 in
20:09 26.6 °F 13.0 °F 30.65 in ENE 4.0 mph 29.0 mph 56 % 0.00 in
20:14 26.6 °F 12.6 °F 30.66 in NE 1.6 mph 29.0 mph 55 % 0.00 in
20:19 26.6 °F 13.0 °F 30.65 in ENE 3.0 mph 29.0 mph 56 % 0.00 in
20:24 26.6 °F 12.6 °F 30.65 in NNE 2.5 mph 29.0 mph 55 % 0.00 in
20:29 26.6 °F 13.0 °F 30.65 in NNE 2.4 mph 29.0 mph 56 % 0.00 in
20:34 26.6 °F 12.6 °F 30.65 in ENE 2.2 mph 29.0 mph 55 % 0.00 in
20:39 26.5 °F 12.9 °F 30.65 in NNE 1.6 mph 29.0 mph 56 % 0.00 in
20:44 26.5 °F 12.9 °F 30.65 in NNE 3.0 mph 6.0 mph 56 % 0.00 in
20:49 26.5 °F 12.9 °F 30.65 in NNE 3.0 mph 8.0 mph 56 % 0.00 in
20:54 26.5 °F 12.5 °F 30.65 in NNE 3.0 mph 7.0 mph 55 % 0.00 in
20:59 26.4 °F 12.4 °F 30.65 in NNE 4.1 mph 29.0 mph 55 % 0.00 in
21:05 26.4 °F 12.4 °F 30.66 in NNE 4.6 mph 29.0 mph 55 % 0.00 in
21:10 26.4 °F 12.8 °F 30.66 in North 4.7 mph 29.0 mph 56 % 0.00 in
21:15 26.4 °F 13.2 °F 30.66 in NE 1.5 mph 29.0 mph 57 % 0.00 in
21:20 26.4 °F 13.2 °F 30.66 in NNE 3.7 mph 29.0 mph 57 % 0.00 in
21:25 26.4 °F 13.2 °F 30.66 in NNE 5.0 mph 29.0 mph 57 % 0.00 in
21:30 26.3 °F 12.7 °F 30.65 in North 5.2 mph 29.0 mph 56 % 0.00 in
21:35 26.3 °F 13.1 °F 30.66 in NNE 3.7 mph 29.0 mph 57 % 0.00 in
21:40 26.3 °F 13.1 °F 30.65 in NNE 4.2 mph 29.0 mph 57 % 0.00 in
21:45 26.2 °F 13.0 °F 30.65 in NNE 3.5 mph 29.0 mph 57 % 0.00 in
21:50 26.2 °F 13.4 °F 30.65 in NNE 4.3 mph 29.0 mph 58 % 0.00 in
21:55 26.1 °F 13.3 °F 30.65 in North 2.1 mph 29.0 mph 58 % 0.00 in
22:00 26.1 °F 13.7 °F 30.65 in NNE 5.1 mph 29.0 mph 59 % 0.00 in
22:05 26.0 °F 13.2 °F 30.65 in ENE 1.5 mph 29.0 mph 58 % 0.00 in
22:10 26.0 °F 13.2 °F 30.65 in NNE 1.1 mph 29.0 mph 58 % 0.00 in
22:15 25.9 °F 12.7 °F 30.65 in NNE 3.4 mph 29.0 mph 57 % 0.00 in
22:20 25.9 °F 12.7 °F 30.65 in NNE 2.5 mph 29.0 mph 57 % 0.00 in
22:26 25.8 °F 12.6 °F 30.65 in NNE 4.3 mph 29.0 mph 57 % 0.00 in
22:31 25.8 °F 13.0 °F 30.65 in North 6.7 mph 29.0 mph 58 % 0.00 in
22:36 25.8 °F 13.0 °F 30.65 in NNE 3.4 mph 29.0 mph 58 % 0.00 in
22:41 25.8 °F 13.4 °F 30.65 in NNE 5.2 mph 29.0 mph 59 % 0.00 in
22:46 25.7 °F 12.9 °F 30.65 in NNE 5.4 mph 29.0 mph 58 % 0.00 in
22:51 25.7 °F 13.3 °F 30.64 in NE 3.4 mph 29.0 mph 59 % 0.00 in
22:56 25.7 °F 13.7 °F 30.65 in NNE 5.2 mph 29.0 mph 60 % 0.00 in
23:01 25.6 °F 13.6 °F 30.64 in North 4.5 mph 29.0 mph 60 % 0.00 in
23:06 25.6 °F 13.6 °F 30.65 in NNE 5.7 mph 29.0 mph 60 % 0.00 in
23:11 25.5 °F 13.5 °F 30.65 in NNE 3.4 mph 29.0 mph 60 % 0.00 in
23:16 25.4 °F 13.4 °F 30.65 in NNE 5.8 mph 29.0 mph 60 % 0.00 in
23:21 25.4 °F 13.4 °F 30.65 in NE 5.6 mph 29.0 mph 60 % 0.00 in
23:26 25.4 °F 13.1 °F 30.65 in NNE 3.0 mph 29.0 mph 59 % 0.00 in
23:31 25.3 °F 13.3 °F 30.64 in North 4.6 mph 29.0 mph 60 % 0.00 in
23:37 25.2 °F 13.2 °F 30.64 in NNE 3.6 mph 29.0 mph 60 % 0.00 in
23:42 25.2 °F 13.2 °F 30.64 in NNE 6.1 mph 29.0 mph 60 % 0.00 in
23:47 25.1 °F 13.2 °F 30.64 in North 6.6 mph 29.0 mph 60 % 0.00 in
23:52 25.1 °F 13.2 °F 30.64 in NNE 3.3 mph 29.0 mph 60 % 0.00 in
23:57 25.0 °F 13.1 °F 30.64 in NNE 4.2 mph 29.0 mph 60 % 0.00 in
Crab Meadow Weather
Compliments of Weather Underground - 3 mb

Script developed by  Jim McMurry - jmcmurry@mwt.net Adapted for the template by  Wim van der Kuil - Leuven-Template.eu

Weather Terms: Squall line - A line of thunderstorms or squalls which may extend over several hundred miles.